sensor_id;sensor_type;location;lat;lon;timestamp;P1;durP1;ratioP1;P2;durP2;ratioP2
20423;SDS011;10371;49.042;8.002;2024-03-02T00:00:50;4.07;;;3.73;;
20423;SDS011;10371;49.042;8.002;2024-03-02T00:01:51;4.27;;;3.87;;
20423;SDS011;10371;49.042;8.002;2024-03-02T00:02:51;4.70;;;4.20;;
20423;SDS011;10371;49.042;8.002;2024-03-02T00:03:52;4.13;;;3.73;;
20423;SDS011;10371;49.042;8.002;2024-03-02T00:04:52;4.50;;;4.10;;
20423;SDS011;10371;49.042;8.002;2024-03-02T00:05:52;4.00;;;3.70;;
20423;SDS011;10371;49.042;8.002;2024-03-02T00:06:53;3.90;;;3.60;;
20423;SDS011;10371;49.042;8.002;2024-03-02T00:07:55;4.60;;;3.20;;
20423;SDS011;10371;49.042;8.002;2024-03-02T00:08:58;4.20;;;3.80;;
20423;SDS011;10371;49.042;8.002;2024-03-02T00:09:59;4.20;;;3.77;;
20423;SDS011;10371;49.042;8.002;2024-03-02T00:11:00;3.83;;;3.53;;
20423;SDS011;10371;49.042;8.002;2024-03-02T00:12:02;4.00;;;3.70;;
20423;SDS011;10371;49.042;8.002;2024-03-02T00:13:03;4.30;;;3.90;;
20423;SDS011;10371;49.042;8.002;2024-03-02T00:14:03;3.90;;;3.60;;
20423;SDS011;10371;49.042;8.002;2024-03-02T00:15:07;4.00;;;3.60;;
20423;SDS011;10371;49.042;8.002;2024-03-02T00:16:43;3.93;;;3.63;;
20423;SDS011;10371;49.042;8.002;2024-03-02T00:17:44;3.87;;;3.57;;
20423;SDS011;10371;49.042;8.002;2024-03-02T00:18:45;4.23;;;3.80;;
20423;SDS011;10371;49.042;8.002;2024-03-02T00:19:46;4.00;;;3.67;;
20423;SDS011;10371;49.042;8.002;2024-03-02T00:20:46;3.77;;;3.47;;
20423;SDS011;10371;49.042;8.002;2024-03-02T00:21:47;3.90;;;3.60;;
20423;SDS011;10371;49.042;8.002;2024-03-02T00:22:47;3.93;;;3.63;;
20423;SDS011;10371;49.042;8.002;2024-03-02T00:23:48;3.77;;;3.47;;
20423;SDS011;10371;49.042;8.002;2024-03-02T00:24:48;3.67;;;3.37;;
20423;SDS011;10371;49.042;8.002;2024-03-02T00:25:50;3.70;;;3.40;;
20423;SDS011;10371;49.042;8.002;2024-03-02T00:26:55;3.47;;;3.17;;
20423;SDS011;10371;49.042;8.002;2024-03-02T00:27:55;3.23;;;3.03;;
20423;SDS011;10371;49.042;8.002;2024-03-02T00:28:56;3.87;;;3.57;;
20423;SDS011;10371;49.042;8.002;2024-03-02T00:30:00;3.07;;;2.77;;
20423;SDS011;10371;49.042;8.002;2024-03-02T00:32:15;3.80;;;3.50;;
20423;SDS011;10371;49.042;8.002;2024-03-02T00:33:16;3.83;;;3.53;;
20423;SDS011;10371;49.042;8.002;2024-03-02T00:34:17;3.87;;;3.57;;
20423;SDS011;10371;49.042;8.002;2024-03-02T00:35:17;3.97;;;3.67;;
20423;SDS011;10371;49.042;8.002;2024-03-02T00:36:26;3.50;;;3.30;;
20423;SDS011;10371;49.042;8.002;2024-03-02T00:37:27;4.10;;;3.80;;
20423;SDS011;10371;49.042;8.002;2024-03-02T00:38:28;4.17;;;3.80;;
20423;SDS011;10371;49.042;8.002;2024-03-02T00:39:29;4.20;;;3.87;;
20423;SDS011;10371;49.042;8.002;2024-03-02T00:40:30;3.70;;;3.40;;
20423;SDS011;10371;49.042;8.002;2024-03-02T00:41:30;3.50;;;3.30;;
20423;SDS011;10371;49.042;8.002;2024-03-02T00:42:31;3.17;;;2.97;;
20423;SDS011;10371;49.042;8.002;2024-03-02T00:43:44;3.23;;;3.03;;
20423;SDS011;10371;49.042;8.002;2024-03-02T00:44:47;3.37;;;3.07;;
20423;SDS011;10371;49.042;8.002;2024-03-02T00:45:47;3.53;;;3.23;;
20423;SDS011;10371;49.042;8.002;2024-03-02T00:46:48;3.83;;;3.40;;
20423;SDS011;10371;49.042;8.002;2024-03-02T00:47:48;3.40;;;3.20;;
20423;SDS011;10371;49.042;8.002;2024-03-02T00:48:55;3.50;;;3.20;;
20423;SDS011;10371;49.042;8.002;2024-03-02T00:50:00;3.43;;;3.13;;
20423;SDS011;10371;49.042;8.002;2024-03-02T00:51:00;3.20;;;3.00;;
20423;SDS011;10371;49.042;8.002;2024-03-02T00:52:00;3.50;;;3.20;;
20423;SDS011;10371;49.042;8.002;2024-03-02T00:53:01;3.27;;;3.00;;
20423;SDS011;10371;49.042;8.002;2024-03-02T00:54:08;3.20;;;3.00;;
20423;SDS011;10371;49.042;8.002;2024-03-02T00:55:09;3.30;;;3.10;;
20423;SDS011;10371;49.042;8.002;2024-03-02T00:56:10;4.57;;;3.40;;
20423;SDS011;10371;49.042;8.002;2024-03-02T00:57:11;4.23;;;3.57;;
20423;SDS011;10371;49.042;8.002;2024-03-02T00:58:12;3.80;;;3.50;;
20423;SDS011;10371;49.042;8.002;2024-03-02T00:59:12;3.37;;;3.17;;
20423;SDS011;10371;49.042;8.002;2024-03-02T01:00:13;3.33;;;3.03;;
20423;SDS011;10371;49.042;8.002;2024-03-02T01:01:15;3.17;;;2.97;;
20423;SDS011;10371;49.042;8.002;2024-03-02T01:02:16;3.20;;;2.90;;
20423;SDS011;10371;49.042;8.002;2024-03-02T01:03:16;3.10;;;2.90;;
20423;SDS011;10371;49.042;8.002;2024-03-02T01:04:16;3.30;;;3.00;;
20423;SDS011;10371;49.042;8.002;2024-03-02T01:05:17;5.47;;;3.83;;
20423;SDS011;10371;49.042;8.002;2024-03-02T01:06:17;3.43;;;3.13;;
20423;SDS011;10371;49.042;8.002;2024-03-02T01:07:18;3.13;;;2.83;;
20423;SDS011;10371;49.042;8.002;2024-03-02T01:08:18;3.80;;;3.10;;
20423;SDS011;10371;49.042;8.002;2024-03-02T01:09:19;2.90;;;2.70;;
20423;SDS011;10371;49.042;8.002;2024-03-02T01:10:19;3.30;;;3.10;;
20423;SDS011;10371;49.042;8.002;2024-03-02T01:11:20;3.20;;;2.90;;
20423;SDS011;10371;49.042;8.002;2024-03-02T01:12:21;3.40;;;3.10;;
20423;SDS011;10371;49.042;8.002;2024-03-02T01:13:22;3.17;;;2.87;;
20423;SDS011;10371;49.042;8.002;2024-03-02T01:14:23;2.80;;;2.60;;
20423;SDS011;10371;49.042;8.002;2024-03-02T01:15:23;2.90;;;2.70;;
20423;SDS011;10371;49.042;8.002;2024-03-02T01:16:23;3.00;;;2.80;;
20423;SDS011;10371;49.042;8.002;2024-03-02T01:17:24;4.20;;;3.90;;
20423;SDS011;10371;49.042;8.002;2024-03-02T01:18:24;4.60;;;4.20;;
20423;SDS011;10371;49.042;8.002;2024-03-02T01:19:24;5.73;;;4.83;;
20423;SDS011;10371;49.042;8.002;2024-03-02T01:20:25;5.13;;;4.47;;
20423;SDS011;10371;49.042;8.002;2024-03-02T01:21:25;6.00;;;5.40;;
20423;SDS011;10371;49.042;8.002;2024-03-02T01:22:25;6.10;;;5.17;;
20423;SDS011;10371;49.042;8.002;2024-03-02T01:23:25;5.73;;;5.23;;
20423;SDS011;10371;49.042;8.002;2024-03-02T01:24:26;6.93;;;5.37;;
20423;SDS011;10371;49.042;8.002;2024-03-02T01:25:26;6.07;;;5.47;;
20423;SDS011;10371;49.042;8.002;2024-03-02T01:26:26;6.17;;;5.43;;
20423;SDS011;10371;49.042;8.002;2024-03-02T01:27:27;5.00;;;4.50;;
20423;SDS011;10371;49.042;8.002;2024-03-02T01:28:27;5.57;;;5.07;;
20423;SDS011;10371;49.042;8.002;2024-03-02T01:29:27;5.83;;;5.23;;
20423;SDS011;10371;49.042;8.002;2024-03-02T01:30:28;5.90;;;5.30;;
20423;SDS011;10371;49.042;8.002;2024-03-02T01:31:28;5.60;;;5.10;;
20423;SDS011;10371;49.042;8.002;2024-03-02T01:32:28;5.80;;;5.20;;
20423;SDS011;10371;49.042;8.002;2024-03-02T01:33:29;6.10;;;5.50;;
20423;SDS011;10371;49.042;8.002;2024-03-02T01:34:29;6.17;;;5.57;;
20423;SDS011;10371;49.042;8.002;2024-03-02T01:35:30;5.97;;;5.37;;
20423;SDS011;10371;49.042;8.002;2024-03-02T01:36:30;5.83;;;5.23;;
20423;SDS011;10371;49.042;8.002;2024-03-02T01:37:30;6.10;;;5.30;;
20423;SDS011;10371;49.042;8.002;2024-03-02T01:38:31;6.10;;;5.50;;
20423;SDS011;10371;49.042;8.002;2024-03-02T01:39:31;8.57;;;5.80;;
20423;SDS011;10371;49.042;8.002;2024-03-02T01:40:32;6.53;;;5.80;;
20423;SDS011;10371;49.042;8.002;2024-03-02T01:41:34;6.70;;;6.00;;
20423;SDS011;10371;49.042;8.002;2024-03-02T01:42:37;6.53;;;5.83;;
20423;SDS011;10371;49.042;8.002;2024-03-02T01:43:38;6.40;;;5.80;;
20423;SDS011;10371;49.042;8.002;2024-03-02T01:44:39;6.37;;;5.77;;
20423;SDS011;10371;49.042;8.002;2024-03-02T01:45:40;6.00;;;5.40;;
20423;SDS011;10371;49.042;8.002;2024-03-02T01:46:41;5.93;;;5.23;;
20423;SDS011;10371;49.042;8.002;2024-03-02T01:47:41;6.00;;;5.47;;
20423;SDS011;10371;49.042;8.002;2024-03-02T01:48:41;5.73;;;5.03;;
20423;SDS011;10371;49.042;8.002;2024-03-02T01:49:42;5.23;;;4.80;;
20423;SDS011;10371;49.042;8.002;2024-03-02T01:50:42;5.57;;;5.07;;
20423;SDS011;10371;49.042;8.002;2024-03-02T01:51:42;4.73;;;4.23;;
20423;SDS011;10371;49.042;8.002;2024-03-02T01:52:43;5.90;;;5.13;;
20423;SDS011;10371;49.042;8.002;2024-03-02T01:53:44;5.60;;;5.00;;
20423;SDS011;10371;49.042;8.002;2024-03-02T01:54:44;6.23;;;4.80;;
20423;SDS011;10371;49.042;8.002;2024-03-02T01:55:44;5.20;;;4.63;;
20423;SDS011;10371;49.042;8.002;2024-03-02T01:56:45;5.73;;;5.23;;
20423;SDS011;10371;49.042;8.002;2024-03-02T01:57:45;6.43;;;5.83;;
20423;SDS011;10371;49.042;8.002;2024-03-02T01:58:47;5.57;;;4.97;;
20423;SDS011;10371;49.042;8.002;2024-03-02T01:59:47;6.20;;;5.60;;
20423;SDS011;10371;49.042;8.002;2024-03-02T02:00:48;5.60;;;5.10;;
20423;SDS011;10371;49.042;8.002;2024-03-02T02:01:48;6.33;;;5.80;;
20423;SDS011;10371;49.042;8.002;2024-03-02T02:02:49;5.73;;;5.20;;
20423;SDS011;10371;49.042;8.002;2024-03-02T02:03:49;5.87;;;5.27;;
20423;SDS011;10371;49.042;8.002;2024-03-02T02:04:50;6.10;;;5.50;;
20423;SDS011;10371;49.042;8.002;2024-03-02T02:05:50;4.93;;;4.53;;
20423;SDS011;10371;49.042;8.002;2024-03-02T02:06:50;5.30;;;4.90;;
20423;SDS011;10371;49.042;8.002;2024-03-02T02:07:51;7.03;;;6.33;;
20423;SDS011;10371;49.042;8.002;2024-03-02T02:08:51;7.17;;;6.37;;
20423;SDS011;10371;49.042;8.002;2024-03-02T02:09:51;6.40;;;5.80;;
20423;SDS011;10371;49.042;8.002;2024-03-02T02:10:51;6.00;;;5.50;;
20423;SDS011;10371;49.042;8.002;2024-03-02T02:11:52;5.83;;;5.33;;
20423;SDS011;10371;49.042;8.002;2024-03-02T02:12:52;5.90;;;5.40;;
20423;SDS011;10371;49.042;8.002;2024-03-02T02:13:53;6.10;;;5.50;;
20423;SDS011;10371;49.042;8.002;2024-03-02T02:14:55;5.80;;;5.30;;
20423;SDS011;10371;49.042;8.002;2024-03-02T02:15:56;6.23;;;5.63;;
20423;SDS011;10371;49.042;8.002;2024-03-02T02:17:04;6.07;;;5.47;;
20423;SDS011;10371;49.042;8.002;2024-03-02T02:18:04;5.83;;;5.33;;
20423;SDS011;10371;49.042;8.002;2024-03-02T02:19:05;5.93;;;5.30;;
20423;SDS011;10371;49.042;8.002;2024-03-02T02:20:05;5.50;;;4.87;;
20423;SDS011;10371;49.042;8.002;2024-03-02T02:21:07;5.30;;;4.80;;
20423;SDS011;10371;49.042;8.002;2024-03-02T02:22:09;5.17;;;4.67;;
20423;SDS011;10371;49.042;8.002;2024-03-02T02:23:11;5.40;;;4.90;;
20423;SDS011;10371;49.042;8.002;2024-03-02T02:24:13;6.07;;;5.50;;
20423;SDS011;10371;49.042;8.002;2024-03-02T02:25:13;6.03;;;5.50;;
20423;SDS011;10371;49.042;8.002;2024-03-02T02:26:14;6.10;;;5.60;;
20423;SDS011;10371;49.042;8.002;2024-03-02T02:27:14;5.50;;;5.00;;
20423;SDS011;10371;49.042;8.002;2024-03-02T02:28:15;5.60;;;5.10;;
20423;SDS011;10371;49.042;8.002;2024-03-02T02:29:16;5.83;;;5.30;;
20423;SDS011;10371;49.042;8.002;2024-03-02T02:30:23;6.40;;;5.80;;
20423;SDS011;10371;49.042;8.002;2024-03-02T02:31:25;5.77;;;5.27;;
20423;SDS011;10371;49.042;8.002;2024-03-02T02:32:25;5.80;;;5.30;;
20423;SDS011;10371;49.042;8.002;2024-03-02T02:33:26;5.83;;;5.33;;
20423;SDS011;10371;49.042;8.002;2024-03-02T02:34:26;6.17;;;5.67;;
20423;SDS011;10371;49.042;8.002;2024-03-02T02:35:26;5.93;;;5.33;;
20423;SDS011;10371;49.042;8.002;2024-03-02T02:36:27;5.27;;;4.80;;
20423;SDS011;10371;49.042;8.002;2024-03-02T02:37:27;5.43;;;4.93;;
20423;SDS011;10371;49.042;8.002;2024-03-02T02:38:27;6.07;;;5.47;;
20423;SDS011;10371;49.042;8.002;2024-03-02T02:39:27;5.93;;;5.13;;
20423;SDS011;10371;49.042;8.002;2024-03-02T02:40:28;5.23;;;4.73;;
20423;SDS011;10371;49.042;8.002;2024-03-02T02:41:30;5.40;;;4.87;;
20423;SDS011;10371;49.042;8.002;2024-03-02T02:42:30;5.23;;;4.83;;
20423;SDS011;10371;49.042;8.002;2024-03-02T02:43:31;6.67;;;5.20;;
20423;SDS011;10371;49.042;8.002;2024-03-02T02:44:31;5.80;;;5.20;;
20423;SDS011;10371;49.042;8.002;2024-03-02T02:45:31;5.87;;;5.27;;
20423;SDS011;10371;49.042;8.002;2024-03-02T02:46:31;5.07;;;4.67;;
20423;SDS011;10371;49.042;8.002;2024-03-02T02:47:32;4.90;;;4.27;;
20423;SDS011;10371;49.042;8.002;2024-03-02T02:48:35;5.33;;;4.70;;
20423;SDS011;10371;49.042;8.002;2024-03-02T02:49:35;5.30;;;4.80;;
20423;SDS011;10371;49.042;8.002;2024-03-02T02:50:35;4.87;;;4.47;;
20423;SDS011;10371;49.042;8.002;2024-03-02T02:51:35;4.93;;;4.47;;
20423;SDS011;10371;49.042;8.002;2024-03-02T02:52:37;4.97;;;4.57;;
20423;SDS011;10371;49.042;8.002;2024-03-02T02:53:39;5.33;;;4.80;;
20423;SDS011;10371;49.042;8.002;2024-03-02T02:54:42;5.80;;;4.73;;
20423;SDS011;10371;49.042;8.002;2024-03-02T02:55:43;5.20;;;4.70;;
20423;SDS011;10371;49.042;8.002;2024-03-02T02:56:43;5.07;;;4.63;;
20423;SDS011;10371;49.042;8.002;2024-03-02T02:57:43;4.73;;;4.33;;
20423;SDS011;10371;49.042;8.002;2024-03-02T02:58:44;4.40;;;4.00;;
20423;SDS011;10371;49.042;8.002;2024-03-02T02:59:44;4.40;;;4.00;;
20423;SDS011;10371;49.042;8.002;2024-03-02T03:00:44;4.93;;;4.50;;
20423;SDS011;10371;49.042;8.002;2024-03-02T03:01:45;4.73;;;4.33;;
20423;SDS011;10371;49.042;8.002;2024-03-02T03:02:46;4.70;;;4.30;;
20423;SDS011;10371;49.042;8.002;2024-03-02T03:03:48;4.47;;;4.17;;
20423;SDS011;10371;49.042;8.002;2024-03-02T03:04:48;4.47;;;4.07;;
20423;SDS011;10371;49.042;8.002;2024-03-02T03:05:48;4.47;;;4.07;;
20423;SDS011;10371;49.042;8.002;2024-03-02T03:06:49;4.67;;;4.27;;
20423;SDS011;10371;49.042;8.002;2024-03-02T03:07:49;5.00;;;4.60;;
20423;SDS011;10371;49.042;8.002;2024-03-02T03:08:50;5.13;;;4.63;;
20423;SDS011;10371;49.042;8.002;2024-03-02T03:09:50;4.50;;;4.17;;
20423;SDS011;10371;49.042;8.002;2024-03-02T03:10:50;4.40;;;4.10;;
20423;SDS011;10371;49.042;8.002;2024-03-02T03:11:50;4.50;;;4.20;;
20423;SDS011;10371;49.042;8.002;2024-03-02T03:12:51;4.67;;;4.27;;
20423;SDS011;10371;49.042;8.002;2024-03-02T03:13:52;5.10;;;4.70;;
20423;SDS011;10371;49.042;8.002;2024-03-02T03:14:54;4.70;;;4.30;;
20423;SDS011;10371;49.042;8.002;2024-03-02T03:15:54;4.50;;;4.10;;
20423;SDS011;10371;49.042;8.002;2024-03-02T03:16:54;4.70;;;4.40;;
20423;SDS011;10371;49.042;8.002;2024-03-02T03:17:55;4.57;;;4.27;;
20423;SDS011;10371;49.042;8.002;2024-03-02T03:18:55;4.80;;;4.40;;
20423;SDS011;10371;49.042;8.002;2024-03-02T03:19:55;4.53;;;4.17;;
20423;SDS011;10371;49.042;8.002;2024-03-02T03:20:55;4.50;;;4.10;;
20423;SDS011;10371;49.042;8.002;2024-03-02T03:21:56;4.80;;;4.40;;
20423;SDS011;10371;49.042;8.002;2024-03-02T03:22:56;4.70;;;4.30;;
20423;SDS011;10371;49.042;8.002;2024-03-02T03:23:57;4.67;;;4.27;;
20423;SDS011;10371;49.042;8.002;2024-03-02T03:24:57;4.30;;;3.90;;
20423;SDS011;10371;49.042;8.002;2024-03-02T03:25:57;4.87;;;4.40;;
20423;SDS011;10371;49.042;8.002;2024-03-02T03:26:57;4.40;;;4.10;;
20423;SDS011;10371;49.042;8.002;2024-03-02T03:27:58;4.67;;;4.27;;
20423;SDS011;10371;49.042;8.002;2024-03-02T03:28:58;5.53;;;4.10;;
20423;SDS011;10371;49.042;8.002;2024-03-02T03:29:58;4.63;;;4.23;;
20423;SDS011;10371;49.042;8.002;2024-03-02T03:30:59;5.00;;;4.23;;
20423;SDS011;10371;49.042;8.002;2024-03-02T03:31:59;4.40;;;4.10;;
20423;SDS011;10371;49.042;8.002;2024-03-02T03:32:59;4.60;;;4.20;;
20423;SDS011;10371;49.042;8.002;2024-03-02T03:33:59;4.53;;;4.23;;
20423;SDS011;10371;49.042;8.002;2024-03-02T03:34:59;4.83;;;4.43;;
20423;SDS011;10371;49.042;8.002;2024-03-02T03:36:00;4.37;;;3.97;;
20423;SDS011;10371;49.042;8.002;2024-03-02T03:37:03;5.27;;;4.47;;
20423;SDS011;10371;49.042;8.002;2024-03-02T03:38:03;4.60;;;4.20;;
20423;SDS011;10371;49.042;8.002;2024-03-02T03:39:04;4.37;;;3.97;;
20423;SDS011;10371;49.042;8.002;2024-03-02T03:40:06;4.73;;;4.33;;
20423;SDS011;10371;49.042;8.002;2024-03-02T03:41:09;4.43;;;4.03;;
20423;SDS011;10371;49.042;8.002;2024-03-02T03:42:10;4.73;;;4.33;;
20423;SDS011;10371;49.042;8.002;2024-03-02T03:43:10;4.43;;;4.10;;
20423;SDS011;10371;49.042;8.002;2024-03-02T03:44:10;5.20;;;4.67;;
20423;SDS011;10371;49.042;8.002;2024-03-02T03:45:11;4.83;;;4.37;;
20423;SDS011;10371;49.042;8.002;2024-03-02T03:46:11;4.90;;;4.50;;
20423;SDS011;10371;49.042;8.002;2024-03-02T03:47:11;4.93;;;4.50;;
20423;SDS011;10371;49.042;8.002;2024-03-02T03:48:12;4.60;;;4.20;;
20423;SDS011;10371;49.042;8.002;2024-03-02T03:49:12;4.93;;;4.50;;
20423;SDS011;10371;49.042;8.002;2024-03-02T03:50:12;4.50;;;4.10;;
20423;SDS011;10371;49.042;8.002;2024-03-02T03:51:13;4.77;;;4.37;;
20423;SDS011;10371;49.042;8.002;2024-03-02T03:52:13;4.43;;;4.13;;
20423;SDS011;10371;49.042;8.002;2024-03-02T03:53:13;4.37;;;3.97;;
20423;SDS011;10371;49.042;8.002;2024-03-02T03:54:14;4.57;;;4.17;;
20423;SDS011;10371;49.042;8.002;2024-03-02T03:55:15;4.40;;;4.00;;
20423;SDS011;10371;49.042;8.002;2024-03-02T03:56:15;4.90;;;4.50;;
20423;SDS011;10371;49.042;8.002;2024-03-02T03:57:15;5.63;;;4.10;;
20423;SDS011;10371;49.042;8.002;2024-03-02T03:58:16;4.07;;;3.77;;
20423;SDS011;10371;49.042;8.002;2024-03-02T03:59:18;4.83;;;4.43;;
20423;SDS011;10371;49.042;8.002;2024-03-02T04:00:19;5.10;;;4.67;;
20423;SDS011;10371;49.042;8.002;2024-03-02T04:01:19;4.63;;;4.23;;
20423;SDS011;10371;49.042;8.002;2024-03-02T04:02:19;4.57;;;4.17;;
20423;SDS011;10371;49.042;8.002;2024-03-02T04:03:19;4.90;;;4.50;;
20423;SDS011;10371;49.042;8.002;2024-03-02T04:04:20;5.30;;;4.80;;
20423;SDS011;10371;49.042;8.002;2024-03-02T04:05:20;5.30;;;4.80;;
20423;SDS011;10371;49.042;8.002;2024-03-02T04:06:20;5.60;;;5.10;;
20423;SDS011;10371;49.042;8.002;2024-03-02T04:07:21;5.60;;;5.10;;
20423;SDS011;10371;49.042;8.002;2024-03-02T04:08:21;5.50;;;5.00;;
20423;SDS011;10371;49.042;8.002;2024-03-02T04:09:21;5.77;;;5.17;;
20423;SDS011;10371;49.042;8.002;2024-03-02T04:10:21;5.60;;;5.20;;
20423;SDS011;10371;49.042;8.002;2024-03-02T04:11:22;5.40;;;4.90;;
20423;SDS011;10371;49.042;8.002;2024-03-02T04:12:22;5.83;;;5.23;;
20423;SDS011;10371;49.042;8.002;2024-03-02T04:13:23;6.30;;;5.70;;
20423;SDS011;10371;49.042;8.002;2024-03-02T04:14:23;6.30;;;5.80;;
20423;SDS011;10371;49.042;8.002;2024-03-02T04:15:23;6.83;;;5.60;;
20423;SDS011;10371;49.042;8.002;2024-03-02T04:16:24;6.47;;;5.90;;
20423;SDS011;10371;49.042;8.002;2024-03-02T04:17:24;6.13;;;5.53;;
20423;SDS011;10371;49.042;8.002;2024-03-02T04:18:24;6.67;;;6.07;;
20423;SDS011;10371;49.042;8.002;2024-03-02T04:19:25;6.70;;;6.10;;
20423;SDS011;10371;49.042;8.002;2024-03-02T04:20:25;6.73;;;6.13;;
20423;SDS011;10371;49.042;8.002;2024-03-02T04:21:25;7.30;;;6.60;;
20423;SDS011;10371;49.042;8.002;2024-03-02T04:22:26;7.07;;;6.47;;
20423;SDS011;10371;49.042;8.002;2024-03-02T04:23:27;7.37;;;6.57;;
20423;SDS011;10371;49.042;8.002;2024-03-02T04:24:27;7.73;;;6.93;;
20423;SDS011;10371;49.042;8.002;2024-03-02T04:25:27;7.77;;;7.07;;
20423;SDS011;10371;49.042;8.002;2024-03-02T04:26:28;8.20;;;7.40;;
20423;SDS011;10371;49.042;8.002;2024-03-02T04:27:28;8.37;;;7.57;;
20423;SDS011;10371;49.042;8.002;2024-03-02T04:28:28;8.63;;;7.73;;
20423;SDS011;10371;49.042;8.002;2024-03-02T04:29:28;7.97;;;7.03;;
20423;SDS011;10371;49.042;8.002;2024-03-02T04:30:29;8.03;;;7.23;;
20423;SDS011;10371;49.042;8.002;2024-03-02T04:31:29;7.67;;;6.87;;
20423;SDS011;10371;49.042;8.002;2024-03-02T04:32:29;7.17;;;6.57;;
20423;SDS011;10371;49.042;8.002;2024-03-02T04:33:29;7.00;;;6.30;;
20423;SDS011;10371;49.042;8.002;2024-03-02T04:34:30;6.17;;;5.57;;
20423;SDS011;10371;49.042;8.002;2024-03-02T04:35:30;6.40;;;5.80;;
20423;SDS011;10371;49.042;8.002;2024-03-02T04:36:30;6.03;;;5.47;;
20423;SDS011;10371;49.042;8.002;2024-03-02T04:37:32;6.30;;;5.70;;
20423;SDS011;10371;49.042;8.002;2024-03-02T04:38:34;6.03;;;5.53;;
20423;SDS011;10371;49.042;8.002;2024-03-02T04:39:35;6.27;;;5.67;;
20423;SDS011;10371;49.042;8.002;2024-03-02T04:40:35;6.30;;;5.70;;
20423;SDS011;10371;49.042;8.002;2024-03-02T04:41:36;6.10;;;5.60;;
20423;SDS011;10371;49.042;8.002;2024-03-02T04:42:36;6.37;;;5.73;;
20423;SDS011;10371;49.042;8.002;2024-03-02T04:43:36;6.57;;;6.03;;
20423;SDS011;10371;49.042;8.002;2024-03-02T04:44:37;6.13;;;5.57;;
20423;SDS011;10371;49.042;8.002;2024-03-02T04:45:38;5.70;;;5.20;;
20423;SDS011;10371;49.042;8.002;2024-03-02T04:46:38;6.77;;;6.17;;
20423;SDS011;10371;49.042;8.002;2024-03-02T04:47:38;6.50;;;5.90;;
20423;SDS011;10371;49.042;8.002;2024-03-02T04:48:39;6.80;;;6.20;;
20423;SDS011;10371;49.042;8.002;2024-03-02T04:49:39;6.53;;;5.93;;
20423;SDS011;10371;49.042;8.002;2024-03-02T04:50:39;6.70;;;6.10;;
20423;SDS011;10371;49.042;8.002;2024-03-02T04:51:40;6.30;;;5.70;;
20423;SDS011;10371;49.042;8.002;2024-03-02T04:52:40;6.10;;;5.60;;
20423;SDS011;10371;49.042;8.002;2024-03-02T04:53:40;6.90;;;5.77;;
20423;SDS011;10371;49.042;8.002;2024-03-02T04:54:41;6.67;;;6.07;;
20423;SDS011;10371;49.042;8.002;2024-03-02T04:55:59;6.17;;;5.57;;
20423;SDS011;10371;49.042;8.002;2024-03-02T04:57:18;6.60;;;6.00;;
20423;SDS011;10371;49.042;8.002;2024-03-02T04:58:18;6.30;;;5.70;;
20423;SDS011;10371;49.042;8.002;2024-03-02T04:59:19;6.87;;;5.63;;
20423;SDS011;10371;49.042;8.002;2024-03-02T05:00:19;6.33;;;5.73;;
20423;SDS011;10371;49.042;8.002;2024-03-02T05:01:20;6.53;;;5.93;;
20423;SDS011;10371;49.042;8.002;2024-03-02T05:02:20;7.50;;;6.90;;
20423;SDS011;10371;49.042;8.002;2024-03-02T05:03:21;7.70;;;6.90;;
20423;SDS011;10371;49.042;8.002;2024-03-02T05:04:21;6.90;;;6.30;;
20423;SDS011;10371;49.042;8.002;2024-03-02T05:05:21;6.77;;;6.17;;
20423;SDS011;10371;49.042;8.002;2024-03-02T05:06:22;7.87;;;7.03;;
20423;SDS011;10371;49.042;8.002;2024-03-02T05:07:23;7.80;;;7.10;;
20423;SDS011;10371;49.042;8.002;2024-03-02T05:08:23;7.30;;;6.57;;
20423;SDS011;10371;49.042;8.002;2024-03-02T05:09:24;7.27;;;6.57;;
20423;SDS011;10371;49.042;8.002;2024-03-02T05:10:24;6.80;;;6.20;;
20423;SDS011;10371;49.042;8.002;2024-03-02T05:11:25;7.00;;;6.30;;
20423;SDS011;10371;49.042;8.002;2024-03-02T05:12:48;7.67;;;6.87;;
20423;SDS011;10371;49.042;8.002;2024-03-02T05:13:59;7.10;;;6.40;;
20423;SDS011;10371;49.042;8.002;2024-03-02T05:14:59;7.33;;;6.43;;
20423;SDS011;10371;49.042;8.002;2024-03-02T05:15:59;8.87;;;6.47;;
20423;SDS011;10371;49.042;8.002;2024-03-02T05:16:59;7.27;;;6.57;;
20423;SDS011;10371;49.042;8.002;2024-03-02T05:18:00;7.50;;;6.80;;
20423;SDS011;10371;49.042;8.002;2024-03-02T05:19:02;9.73;;;8.93;;
20423;SDS011;10371;49.042;8.002;2024-03-02T05:20:03;12.67;;;11.57;;
20423;SDS011;10371;49.042;8.002;2024-03-02T05:21:05;23.97;;;17.40;;
20423;SDS011;10371;49.042;8.002;2024-03-02T05:22:05;33.23;;;22.43;;
20423;SDS011;10371;49.042;8.002;2024-03-02T05:23:05;28.57;;;21.77;;
20423;SDS011;10371;49.042;8.002;2024-03-02T05:24:06;16.67;;;13.37;;
20423;SDS011;10371;49.042;8.002;2024-03-02T05:25:06;10.73;;;9.43;;
20423;SDS011;10371;49.042;8.002;2024-03-02T05:26:07;9.07;;;8.07;;
20423;SDS011;10371;49.042;8.002;2024-03-02T05:27:08;7.40;;;6.70;;
20423;SDS011;10371;49.042;8.002;2024-03-02T05:28:08;6.17;;;5.57;;
20423;SDS011;10371;49.042;8.002;2024-03-02T05:29:08;6.30;;;5.70;;
20423;SDS011;10371;49.042;8.002;2024-03-02T05:30:09;6.90;;;6.20;;
20423;SDS011;10371;49.042;8.002;2024-03-02T05:31:10;6.57;;;5.97;;
20423;SDS011;10371;49.042;8.002;2024-03-02T05:32:11;6.20;;;5.70;;
20423;SDS011;10371;49.042;8.002;2024-03-02T05:33:11;5.40;;;5.00;;
20423;SDS011;10371;49.042;8.002;2024-03-02T05:34:11;5.63;;;5.13;;
20423;SDS011;10371;49.042;8.002;2024-03-02T05:35:12;6.97;;;6.20;;
20423;SDS011;10371;49.042;8.002;2024-03-02T05:36:12;7.20;;;6.60;;
20423;SDS011;10371;49.042;8.002;2024-03-02T05:37:13;8.20;;;7.40;;
20423;SDS011;10371;49.042;8.002;2024-03-02T05:38:13;9.90;;;8.47;;
20423;SDS011;10371;49.042;8.002;2024-03-02T05:39:13;9.63;;;8.63;;
20423;SDS011;10371;49.042;8.002;2024-03-02T05:40:13;10.47;;;8.40;;
20423;SDS011;10371;49.042;8.002;2024-03-02T05:41:14;8.70;;;7.83;;
20423;SDS011;10371;49.042;8.002;2024-03-02T05:42:14;8.60;;;7.73;;
20423;SDS011;10371;49.042;8.002;2024-03-02T05:43:16;8.93;;;8.10;;
20423;SDS011;10371;49.042;8.002;2024-03-02T05:44:17;9.37;;;8.07;;
20423;SDS011;10371;49.042;8.002;2024-03-02T05:45:18;8.87;;;7.97;;
20423;SDS011;10371;49.042;8.002;2024-03-02T05:46:18;8.90;;;8.00;;
20423;SDS011;10371;49.042;8.002;2024-03-02T05:47:18;9.13;;;8.23;;
20423;SDS011;10371;49.042;8.002;2024-03-02T05:48:19;11.23;;;9.07;;
20423;SDS011;10371;49.042;8.002;2024-03-02T05:49:19;11.07;;;8.97;;
20423;SDS011;10371;49.042;8.002;2024-03-02T05:50:19;10.00;;;9.00;;
20423;SDS011;10371;49.042;8.002;2024-03-02T05:51:20;9.90;;;8.90;;
20423;SDS011;10371;49.042;8.002;2024-03-02T05:52:20;10.03;;;9.07;;
20423;SDS011;10371;49.042;8.002;2024-03-02T05:53:22;11.37;;;9.80;;
20423;SDS011;10371;49.042;8.002;2024-03-02T05:54:22;9.80;;;8.87;;
20423;SDS011;10371;49.042;8.002;2024-03-02T05:55:22;10.80;;;9.67;;
20423;SDS011;10371;49.042;8.002;2024-03-02T05:56:23;11.00;;;9.60;;
20423;SDS011;10371;49.042;8.002;2024-03-02T05:57:23;11.27;;;10.13;;
20423;SDS011;10371;49.042;8.002;2024-03-02T05:58:42;11.30;;;10.10;;
20423;SDS011;10371;49.042;8.002;2024-03-02T06:00:08;10.90;;;9.80;;
20423;SDS011;10371;49.042;8.002;2024-03-02T06:01:09;10.97;;;9.87;;
20423;SDS011;10371;49.042;8.002;2024-03-02T06:02:09;11.07;;;9.97;;
20423;SDS011;10371;49.042;8.002;2024-03-02T06:03:09;13.33;;;11.00;;
20423;SDS011;10371;49.042;8.002;2024-03-02T06:04:10;11.50;;;10.40;;
20423;SDS011;10371;49.042;8.002;2024-03-02T06:05:11;10.63;;;9.53;;
20423;SDS011;10371;49.042;8.002;2024-03-02T06:06:11;11.20;;;10.03;;
20423;SDS011;10371;49.042;8.002;2024-03-02T06:07:11;10.33;;;9.33;;
20423;SDS011;10371;49.042;8.002;2024-03-02T06:08:12;9.13;;;8.27;;
20423;SDS011;10371;49.042;8.002;2024-03-02T06:09:12;8.80;;;8.00;;